createdAt,value
2023-03-01T00:00:52.103Z,68.98
2023-03-01T00:03:20.090Z,68.69
2023-03-01T00:05:47.716Z,68.80
2023-03-01T00:08:14.329Z,69.44
2023-03-01T00:10:40.787Z,68.86
2023-03-01T00:13:07.693Z,69.14
2023-03-01T00:15:35.817Z,69.06
2023-03-01T00:18:02.241Z,69.91
2023-03-01T00:20:30.898Z,69.08
2023-03-01T00:22:57.378Z,69.24
2023-03-01T00:25:23.791Z,69.31
2023-03-01T00:27:50.554Z,69.25
2023-03-01T00:30:17.169Z,70.00
2023-03-01T00:32:43.608Z,69.86
2023-03-01T00:35:10.485Z,69.34
2023-03-01T00:37:36.919Z,69.91
2023-03-01T00:40:07.030Z,69.10
2023-03-01T00:42:33.460Z,70.00
2023-03-01T00:44:59.885Z,68.95
2023-03-01T00:47:26.359Z,69.77
2023-03-01T00:49:52.826Z,69.94
2023-03-01T00:52:19.265Z,69.85
2023-03-01T00:54:45.880Z,69.71
2023-03-01T00:57:12.325Z,69.97
2023-03-01T00:59:38.741Z,70.38
2023-03-01T01:02:05.190Z,70.65
2023-03-01T01:04:31.668Z,69.99
2023-03-01T01:06:58.110Z,71.08
2023-03-01T01:09:24.512Z,69.88
2023-03-01T01:11:51.807Z,69.76
2023-03-01T01:14:19.523Z,70.49
2023-03-01T01:16:46.023Z,70.29
2023-03-01T01:19:12.997Z,70.72
2023-03-01T01:21:39.434Z,70.77
2023-03-01T01:24:06.443Z,70.49
2023-03-01T01:26:34.893Z,70.71
2023-03-01T01:29:03.306Z,70.64
2023-03-01T01:31:30.964Z,70.90
2023-03-01T01:33:58.344Z,71.27
2023-03-01T01:36:24.851Z,71.31
2023-03-01T01:38:51.868Z,71.18
2023-03-01T01:41:18.888Z,71.95
2023-03-01T01:43:48.353Z,71.54
2023-03-01T01:46:30.284Z,71.21
2023-03-01T01:49:01.237Z,72.73
2023-03-01T01:51:39.335Z,72.98
2023-03-01T01:54:28.108Z,72.32
2023-03-01T01:57:01.934Z,72.14
2023-03-01T01:59:29.779Z,72.75
2023-03-01T02:01:56.308Z,72.66
2023-03-01T02:04:23.207Z,72.32
2023-03-01T02:06:55.372Z,72.55
2023-03-01T02:09:22.987Z,72.26
2023-03-01T02:11:50.129Z,73.04
2023-03-01T02:14:17.064Z,73.36
2023-03-01T02:16:43.991Z,72.87
2023-03-01T02:19:17.901Z,73.10
2023-03-01T02:22:07.621Z,73.13
2023-03-01T02:24:39.864Z,73.40
2023-03-01T02:27:06.591Z,73.67
2023-03-01T02:29:33.060Z,73.29
2023-03-01T02:32:00.968Z,73.57
2023-03-01T02:34:28.073Z,73.05
2023-03-01T02:37:07.434Z,72.95
2023-03-01T02:40:00.773Z,73.55
2023-03-01T02:42:33.008Z,72.83
2023-03-01T02:44:59.654Z,73.14
2023-03-01T02:47:26.076Z,74.08
2023-03-01T02:49:52.628Z,73.22
2023-03-01T02:52:46.009Z,73.16
2023-03-01T02:55:15.580Z,72.78
2023-03-01T02:57:44.567Z,73.60
2023-03-01T03:00:20.353Z,73.99
2023-03-01T03:02:52.994Z,73.51
2023-03-01T03:05:22.171Z,74.58
2023-03-01T03:07:49.996Z,73.73
2023-03-01T03:10:27.764Z,73.53
2023-03-01T03:13:00.188Z,73.61
2023-03-01T03:15:28.106Z,73.85
2023-03-01T03:17:54.802Z,73.68
2023-03-01T03:20:23.626Z,74.62
2023-03-01T03:22:52.712Z,74.01
2023-03-01T03:25:19.722Z,74.03
2023-03-01T03:27:48.248Z,73.73
2023-03-01T03:30:18.459Z,73.74
2023-03-01T03:32:53.053Z,74.47
2023-03-01T03:35:33.824Z,74.03
2023-03-01T03:38:02.922Z,73.73
2023-03-01T03:40:38.427Z,74.05
2023-03-01T03:43:06.445Z,73.83
2023-03-01T03:45:34.465Z,74.26
2023-03-01T03:48:01.706Z,74.47
2023-03-01T03:50:28.255Z,74.08
2023-03-01T03:52:54.792Z,74.62
2023-03-01T03:55:21.274Z,75.17
2023-03-01T03:57:52.550Z,75.08
2023-03-01T04:00:21.911Z,75.14
2023-03-01T04:02:49.328Z,75.79
2023-03-01T04:05:17.294Z,75.13
2023-03-01T04:07:44.061Z,75.52
2023-03-01T04:10:14.037Z,75.32
2023-03-01T04:12:40.526Z,75.55
2023-03-01T04:15:14.093Z,74.80
2023-03-01T04:17:45.163Z,75.38
2023-03-01T04:20:14.676Z,75.71
2023-03-01T04:22:41.576Z,77.12
2023-03-01T04:25:08.516Z,77.05
2023-03-01T04:27:35.442Z,76.56
2023-03-01T04:30:02.670Z,76.66
2023-03-01T04:32:29.188Z,76.34
2023-03-01T04:34:55.805Z,77.76
2023-03-01T04:37:22.260Z,77.45
2023-03-01T04:39:48.733Z,77.83
2023-03-01T04:42:16.158Z,78.17
2023-03-01T04:44:42.634Z,77.51
2023-03-01T04:47:09.165Z,77.99
2023-03-01T04:49:35.819Z,77.62
2023-03-01T04:52:05.090Z,78.67
2023-03-01T04:54:32.715Z,77.95
2023-03-01T04:56:59.701Z,78.47
2023-03-01T04:59:26.624Z,78.56
2023-03-01T05:01:56.420Z,78.41
2023-03-01T05:04:23.961Z,78.53
2023-03-01T05:06:50.901Z,80.20
2023-03-01T05:09:17.563Z,79.34
2023-03-01T05:11:44.586Z,80.22
2023-03-01T05:14:11.346Z,79.24
2023-03-01T05:16:38.169Z,79.44
2023-03-01T05:19:16.134Z,78.60
2023-03-01T05:22:02.512Z,78.57
2023-03-01T05:24:30.552Z,78.98
2023-03-01T05:26:57.023Z,78.94
2023-03-01T05:29:27.942Z,78.70
2023-03-01T05:31:55.922Z,78.48
2023-03-01T05:34:34.028Z,78.65
2023-03-01T05:37:01.052Z,78.31
2023-03-01T05:39:29.358Z,79.17
2023-03-01T05:42:00.628Z,78.64
2023-03-01T05:44:27.789Z,77.65
2023-03-01T05:46:55.980Z,78.58
2023-03-01T05:49:24.893Z,78.42
2023-03-01T05:51:53.402Z,78.01
2023-03-01T05:54:21.237Z,78.01
2023-03-01T05:56:47.965Z,77.97
2023-03-01T05:59:15.971Z,77.91
2023-03-01T06:01:42.405Z,78.17
2023-03-01T06:04:09.158Z,77.33
2023-03-01T06:06:40.408Z,78.26
2023-03-01T06:09:08.371Z,78.20
2023-03-01T06:11:35.978Z,78.98
2023-03-01T06:14:02.568Z,78.82
2023-03-01T06:16:29.510Z,79.24
2023-03-01T06:18:56.263Z,78.64
2023-03-01T06:21:22.748Z,78.36
2023-03-01T06:23:49.171Z,78.83
2023-03-01T06:26:15.654Z,79.29
2023-03-01T06:28:42.066Z,79.57
2023-03-01T06:31:09.862Z,80.12
2023-03-01T06:33:37.379Z,79.75
2023-03-01T06:36:04.313Z,80.28
2023-03-01T06:38:30.831Z,80.17
2023-03-01T06:40:57.658Z,79.77
2023-03-01T06:43:24.672Z,79.46
2023-03-01T06:45:51.468Z,80.17
2023-03-01T06:48:18.358Z,79.87
2023-03-01T06:50:44.920Z,80.38
2023-03-01T06:53:11.585Z,79.71
2023-03-01T06:55:38.046Z,80.60
2023-03-01T06:58:04.509Z,79.89
2023-03-01T07:00:31.498Z,79.99
2023-03-01T07:03:04.660Z,80.28
2023-03-01T07:05:31.902Z,80.39
2023-03-01T07:07:58.443Z,79.04
2023-03-01T07:10:25.062Z,79.75
2023-03-01T07:12:51.597Z,79.61
2023-03-01T07:15:21.302Z,80.33
2023-03-01T07:17:50.859Z,78.59
2023-03-01T07:20:18.592Z,79.31
2023-03-01T07:22:45.056Z,78.07
2023-03-01T07:25:12.005Z,79.01
2023-03-01T07:27:38.468Z,77.88
2023-03-01T07:30:05.457Z,76.57
2023-03-01T07:32:32.074Z,76.74
2023-03-01T07:34:58.568Z,77.37
2023-03-01T07:37:25.037Z,77.51
2023-03-01T07:39:51.514Z,76.61
2023-03-01T07:42:17.933Z,76.66
2023-03-01T07:44:44.410Z,75.62
2023-03-01T07:47:10.942Z,76.34
2023-03-01T07:49:37.382Z,74.63
2023-03-01T07:52:03.995Z,75.76
2023-03-01T07:54:30.520Z,74.25
2023-03-01T07:56:57.888Z,73.47
2023-03-01T07:59:29.807Z,73.44
2023-03-01T08:01:57.455Z,74.03
2023-03-01T08:04:25.821Z,72.93
2023-03-01T08:06:52.686Z,72.86
2023-03-01T08:09:19.224Z,72.38
2023-03-01T08:11:45.762Z,71.43
2023-03-01T08:14:12.200Z,72.57
2023-03-01T08:16:38.885Z,71.28
2023-03-01T08:19:10.187Z,71.26
2023-03-01T08:21:37.192Z,71.27
2023-03-01T08:24:06.696Z,70.95
2023-03-01T08:26:35.971Z,70.27
2023-03-01T08:29:02.547Z,69.51
2023-03-01T08:31:36.577Z,69.30
2023-03-01T08:34:08.958Z,69.91
2023-03-01T08:36:43.595Z,69.27
2023-03-01T08:39:12.306Z,69.18
2023-03-01T08:41:39.224Z,68.73
2023-03-01T08:44:06.109Z,68.16
2023-03-01T08:46:36.828Z,67.36
2023-03-01T08:49:07.992Z,67.26
2023-03-01T08:51:37.669Z,68.13
2023-03-01T08:54:10.818Z,68.45
2023-03-01T08:56:37.369Z,68.29
2023-03-01T08:59:04.425Z,68.04
2023-03-01T09:01:30.952Z,66.99
2023-03-01T09:03:57.436Z,66.27
2023-03-01T09:06:23.942Z,67.41
2023-03-01T09:08:51.337Z,67.48
2023-03-01T09:11:20.514Z,66.28
2023-03-01T09:13:48.171Z,65.89
2023-03-01T09:16:16.279Z,65.87
2023-03-01T09:18:42.758Z,65.78
2023-03-01T09:21:14.884Z,65.04
2023-03-01T09:23:45.843Z,65.24
2023-03-01T09:26:22.993Z,64.99
2023-03-01T09:28:54.495Z,64.96
2023-03-01T09:31:22.190Z,64.86
2023-03-01T09:33:51.211Z,64.64
2023-03-01T09:36:21.614Z,65.35
2023-03-01T09:38:48.665Z,64.74
2023-03-01T09:41:18.242Z,64.29
2023-03-01T09:44:05.963Z,63.66
2023-03-01T09:46:38.905Z,64.32
2023-03-01T09:49:12.257Z,64.09
2023-03-01T09:51:38.907Z,63.71
2023-03-01T09:54:06.623Z,63.92
2023-03-01T09:56:42.732Z,63.20
2023-03-01T09:59:15.226Z,62.88
2023-03-01T10:01:59.403Z,63.20
2023-03-01T10:04:48.983Z,63.26
2023-03-01T10:07:29.167Z,63.09
2023-03-01T10:09:55.734Z,62.78
2023-03-01T10:12:27.835Z,62.14
2023-03-01T10:15:06.526Z,61.93
2023-03-01T10:17:53.823Z,62.14
2023-03-01T10:20:43.049Z,62.03
2023-03-01T10:23:10.017Z,62.44
2023-03-01T10:25:45.400Z,61.69
2023-03-01T10:28:19.071Z,62.70
2023-03-01T10:30:46.254Z,61.01
2023-03-01T10:33:23.152Z,60.24
2023-03-01T10:35:49.855Z,59.96
2023-03-01T10:38:18.482Z,60.58
2023-03-01T10:40:52.865Z,60.18
2023-03-01T10:43:19.526Z,59.51
2023-03-01T10:45:45.999Z,60.16
2023-03-01T10:48:18.007Z,59.53
2023-03-01T10:50:46.926Z,60.12
2023-03-01T10:53:27.727Z,58.71
2023-03-01T10:56:02.157Z,59.01
2023-03-01T10:58:29.885Z,58.69
2023-03-01T11:01:07.920Z,58.13
2023-03-01T11:03:39.685Z,57.93
2023-03-01T11:06:12.254Z,58.30
2023-03-01T11:08:43.069Z,57.48
2023-03-01T11:11:26.346Z,56.59
2023-03-01T11:14:23.459Z,57.47
2023-03-01T11:17:04.075Z,57.10
2023-03-01T11:19:30.720Z,56.76
2023-03-01T11:22:03.283Z,56.27
2023-03-01T11:24:43.692Z,56.57
2023-03-01T11:27:18.241Z,55.40
2023-03-01T11:29:49.191Z,55.94
2023-03-01T11:32:16.575Z,55.70
2023-03-01T11:35:02.289Z,57.47
2023-03-01T11:37:50.412Z,55.95
2023-03-01T11:40:26.605Z,56.15
2023-03-01T11:43:11.904Z,55.49
2023-03-01T11:45:49.239Z,54.76
2023-03-01T11:48:48.917Z,56.02
2023-03-01T11:51:25.140Z,54.64
2023-03-01T11:54:02.211Z,54.91
2023-03-01T11:56:34.972Z,54.99
2023-03-01T11:59:40.035Z,54.68
2023-03-01T12:02:06.493Z,54.41
2023-03-01T12:05:03.733Z,54.70
2023-03-01T12:07:37.307Z,54.64
2023-03-01T12:10:12.803Z,54.62
2023-03-01T12:12:57.913Z,53.86
2023-03-01T12:15:40.769Z,54.64
2023-03-01T12:18:25.550Z,54.63
2023-03-01T12:21:10.449Z,53.77
2023-03-01T12:23:57.761Z,53.21
2023-03-01T12:26:32.203Z,53.84
2023-03-01T12:29:32.480Z,53.49
2023-03-01T12:32:12.326Z,53.38
2023-03-01T12:35:01.043Z,52.98
2023-03-01T12:37:43.960Z,53.29
2023-03-01T12:40:25.935Z,52.84
2023-03-01T12:43:04.319Z,53.87
2023-03-01T12:45:57.265Z,53.58
2023-03-01T12:48:33.252Z,53.84
2023-03-01T12:51:03.799Z,53.38
2023-03-01T12:53:34.704Z,52.84
2023-03-01T12:56:04.151Z,52.78
2023-03-01T12:58:58.880Z,52.51
2023-03-01T13:01:40.409Z,52.47
2023-03-01T13:04:12.847Z,51.79
2023-03-01T13:06:48.233Z,51.86
2023-03-01T13:10:02.529Z,52.47
2023-03-01T13:12:53.997Z,52.17
2023-03-01T13:15:23.483Z,52.34
2023-03-01T13:18:26.486Z,52.43
2023-03-01T13:20:55.425Z,52.54
2023-03-01T13:23:21.971Z,50.95
2023-03-01T13:26:03.569Z,51.04
2023-03-01T13:28:32.698Z,51.78
2023-03-01T13:30:59.668Z,51.54
2023-03-01T13:33:29.038Z,51.79
2023-03-01T13:35:59.524Z,52.72
2023-03-01T13:38:48.704Z,51.75
2023-03-01T13:41:43.641Z,51.81
2023-03-01T13:44:37.215Z,51.35
2023-03-01T13:47:06.899Z,51.49
2023-03-01T13:49:46.596Z,51.86
2023-03-01T13:52:22.206Z,50.28
2023-03-01T13:54:48.657Z,49.91
2023-03-01T13:57:23.090Z,49.56
2023-03-01T13:59:49.568Z,50.37
2023-03-01T14:02:16.158Z,50.34
2023-03-01T14:04:42.656Z,50.64
2023-03-01T14:07:25.209Z,49.71
2023-03-01T14:09:57.702Z,49.01
2023-03-01T14:12:32.847Z,49.63
2023-03-01T14:15:06.043Z,50.15
2023-03-01T14:17:38.536Z,50.12
2023-03-01T14:20:20.528Z,49.94
2023-03-01T14:22:47.539Z,50.53
2023-03-01T14:25:21.500Z,49.95
2023-03-01T14:27:55.372Z,50.38
2023-03-01T14:30:43.674Z,49.61
2023-03-01T14:33:23.318Z,49.60
2023-03-01T14:35:58.993Z,49.72
2023-03-01T14:38:36.125Z,51.30
2023-03-01T14:41:10.071Z,51.32
2023-03-01T14:43:38.847Z,50.69
2023-03-01T14:46:05.364Z,49.36
2023-03-01T14:48:32.406Z,49.65
2023-03-01T14:50:59.063Z,50.46
2023-03-01T14:53:28.620Z,49.60
2023-03-01T14:55:57.360Z,48.76
2023-03-01T14:58:25.876Z,48.64
2023-03-01T15:00:56.069Z,48.71
2023-03-01T15:03:31.574Z,50.01
2023-03-01T15:05:58.206Z,48.67
2023-03-01T15:08:26.878Z,49.70
2023-03-01T15:10:59.149Z,49.18
2023-03-01T15:13:27.599Z,49.05
2023-03-01T15:16:08.303Z,48.91
2023-03-01T15:18:35.684Z,48.55
2023-03-01T15:21:18.614Z,48.16
2023-03-01T15:23:53.214Z,48.85
2023-03-01T15:26:25.897Z,48.93
2023-03-01T15:28:54.098Z,49.30
2023-03-01T15:31:26.314Z,48.70
2023-03-01T15:33:53.042Z,48.59
2023-03-01T15:36:42.801Z,49.19
2023-03-01T15:39:38.271Z,50.44
2023-03-01T15:42:06.949Z,51.02
2023-03-01T15:44:43.349Z,50.27
2023-03-01T15:47:25.252Z,50.50
2023-03-01T15:49:55.441Z,50.60
2023-03-01T15:52:32.589Z,49.36
2023-03-01T15:55:01.395Z,50.00
2023-03-01T15:57:28.568Z,49.67
2023-03-01T15:59:55.072Z,49.45
2023-03-01T16:02:23.569Z,50.83
2023-03-01T16:04:50.033Z,50.29
2023-03-01T16:07:16.863Z,50.96
2023-03-01T16:09:44.883Z,51.05
2023-03-01T16:12:15.629Z,51.29
2023-03-01T16:14:42.290Z,50.64
2023-03-01T16:17:11.053Z,50.78
2023-03-01T16:19:38.669Z,50.55
2023-03-01T16:22:05.465Z,51.21
2023-03-01T16:24:32.121Z,51.71
2023-03-01T16:26:58.546Z,51.34
2023-03-01T16:29:25.109Z,51.10
2023-03-01T16:31:51.969Z,50.84
2023-03-01T16:34:18.634Z,51.23
2023-03-01T16:36:45.233Z,51.72
2023-03-01T16:39:11.659Z,51.35
2023-03-01T16:41:38.089Z,52.28
2023-03-01T16:44:04.653Z,50.85
2023-03-01T16:46:31.189Z,51.73
2023-03-01T16:48:58.054Z,52.35
2023-03-01T16:51:24.999Z,52.52
2023-03-01T16:53:51.868Z,51.86
2023-03-01T16:56:19.332Z,52.89
2023-03-01T16:58:45.832Z,52.45
2023-03-01T17:01:18.099Z,52.91
2023-03-01T17:03:47.341Z,53.19
2023-03-01T17:06:16.679Z,53.06
2023-03-01T17:08:43.199Z,52.85
2023-03-01T17:11:18.419Z,52.59
2023-03-01T17:13:44.949Z,53.18
2023-03-01T17:16:15.236Z,53.62
2023-03-01T17:18:41.803Z,54.21
2023-03-01T17:21:08.805Z,54.05
2023-03-01T17:23:36.354Z,54.90
2023-03-01T17:26:03.613Z,55.02
2023-03-01T17:28:32.589Z,55.37
2023-03-01T17:31:00.322Z,55.09
2023-03-01T17:33:26.965Z,55.17
2023-03-01T17:35:53.391Z,55.32
2023-03-01T17:38:19.902Z,55.72
2023-03-01T17:40:46.957Z,55.27
2023-03-01T17:43:14.381Z,55.26
2023-03-01T17:45:40.923Z,55.86
2023-03-01T17:48:07.885Z,55.77
2023-03-01T17:50:38.839Z,56.16
2023-03-01T17:53:09.630Z,56.03
2023-03-01T17:55:37.377Z,56.15
2023-03-01T17:58:04.675Z,55.94
2023-03-01T18:00:31.335Z,56.03
2023-03-01T18:02:57.816Z,56.06
2023-03-01T18:05:24.685Z,56.22
2023-03-01T18:07:52.240Z,56.25
2023-03-01T18:10:19.670Z,56.03
2023-03-01T18:12:46.489Z,56.36
2023-03-01T18:15:13.269Z,56.36
2023-03-01T18:17:42.563Z,56.24
2023-03-01T18:20:10.131Z,56.88
2023-03-01T18:22:37.833Z,56.76
2023-03-01T18:25:05.075Z,57.10
2023-03-01T18:27:31.637Z,56.73
2023-03-01T18:29:58.253Z,57.17
2023-03-01T18:32:25.650Z,57.13
2023-03-01T18:34:52.198Z,57.47
2023-03-01T18:37:18.652Z,57.15
2023-03-01T18:39:45.163Z,57.21
2023-03-01T18:42:11.671Z,57.35
2023-03-01T18:44:39.712Z,57.72
2023-03-01T18:47:06.180Z,57.47
2023-03-01T18:49:32.640Z,57.79
2023-03-01T18:51:59.300Z,58.12
2023-03-01T18:54:25.733Z,58.35
2023-03-01T18:56:52.213Z,57.87
2023-03-01T18:59:18.714Z,58.21
2023-03-01T19:01:45.377Z,58.69
2023-03-01T19:04:12.167Z,58.33
2023-03-01T19:06:39.447Z,58.24
2023-03-01T19:09:07.005Z,58.84
2023-03-01T19:11:35.343Z,59.20
2023-03-01T19:14:02.367Z,60.20
2023-03-01T19:16:31.483Z,60.21
2023-03-01T19:19:03.677Z,59.58
2023-03-01T19:21:31.912Z,59.67
2023-03-01T19:23:59.449Z,60.67
2023-03-01T19:26:27.173Z,60.05
2023-03-01T19:28:55.242Z,59.49
2023-03-01T19:31:25.632Z,60.38
2023-03-01T19:33:59.508Z,60.57
2023-03-01T19:36:34.998Z,61.62
2023-03-01T19:39:05.775Z,60.42
2023-03-01T19:41:32.277Z,60.60
2023-03-01T19:43:58.745Z,60.15
2023-03-01T19:46:25.678Z,60.87
2023-03-01T19:48:53.913Z,61.21
2023-03-01T19:51:20.439Z,60.70
2023-03-01T19:53:47.662Z,60.77
2023-03-01T19:56:14.236Z,61.92
2023-03-01T19:58:40.821Z,61.74
2023-03-01T20:01:15.352Z,61.22
2023-03-01T20:03:41.849Z,61.39
2023-03-01T20:06:20.228Z,62.03
2023-03-01T20:08:46.749Z,62.33
2023-03-01T20:11:14.564Z,61.61
2023-03-01T20:13:41.302Z,62.29
2023-03-01T20:16:08.512Z,61.72
2023-03-01T20:18:35.584Z,62.44
2023-03-01T20:21:02.777Z,62.06
2023-03-01T20:23:33.372Z,63.63
2023-03-01T20:26:08.755Z,64.56
2023-03-01T20:28:36.674Z,63.72
2023-03-01T20:31:05.175Z,64.09
2023-03-01T20:33:31.702Z,63.29
2023-03-01T20:35:58.258Z,65.14
2023-03-01T20:38:26.281Z,63.33
2023-03-01T20:41:03.966Z,63.37
2023-03-01T20:43:30.973Z,64.01
2023-03-01T20:45:57.435Z,63.63
2023-03-01T20:48:24.015Z,63.46
2023-03-01T20:50:50.500Z,63.94
2023-03-01T20:53:16.960Z,63.32
2023-03-01T20:55:43.408Z,63.55
2023-03-01T20:58:09.843Z,64.61
2023-03-01T21:00:36.291Z,64.81
2023-03-01T21:03:03.993Z,63.88
2023-03-01T21:05:31.723Z,63.37
2023-03-01T21:10:27.637Z,63.05
2023-03-01T21:12:54.228Z,63.14
2023-03-01T21:15:28.961Z,63.60
2023-03-01T21:17:55.997Z,62.53
2023-03-01T21:20:22.452Z,62.83
2023-03-01T21:22:48.895Z,63.69
2023-03-01T21:25:15.543Z,62.86
2023-03-01T21:27:42.024Z,63.12
2023-03-01T21:30:08.998Z,62.82
2023-03-01T21:32:35.579Z,62.48
2023-03-01T21:35:02.126Z,63.24
2023-03-01T21:37:28.540Z,63.68
2023-03-01T21:39:56.610Z,63.09
2023-03-01T21:42:23.177Z,63.30
2023-03-01T21:44:49.575Z,62.74
2023-03-01T21:47:16.138Z,63.33
2023-03-01T21:49:42.613Z,63.26
2023-03-01T21:52:09.067Z,63.83
2023-03-01T21:54:35.604Z,64.19
2023-03-01T21:57:02.037Z,63.84
2023-03-01T21:59:28.986Z,63.54
2023-03-01T22:01:55.512Z,63.77
2023-03-01T22:04:24.596Z,64.22
2023-03-01T22:06:54.286Z,63.78
2023-03-01T22:09:22.829Z,63.84
2023-03-01T22:11:51.196Z,64.58
2023-03-01T22:14:18.926Z,64.55
2023-03-01T22:16:46.638Z,64.73
2023-03-01T22:19:15.155Z,64.65
2023-03-01T22:21:43.679Z,64.63
2023-03-01T22:24:11.461Z,65.08
2023-03-01T22:26:40.913Z,63.93
2023-03-01T22:29:10.498Z,64.04
2023-03-01T22:31:37.209Z,64.91
2023-03-01T22:34:04.403Z,64.05
2023-03-01T22:36:31.485Z,64.58
2023-03-01T22:39:01.930Z,65.19
2023-03-01T22:41:48.413Z,64.96
2023-03-01T22:44:17.658Z,64.46
2023-03-01T22:46:44.436Z,65.79
2023-03-01T22:49:11.007Z,65.31
2023-03-01T22:51:39.809Z,65.87
2023-03-01T22:54:07.618Z,64.78
2023-03-01T22:56:36.716Z,65.36
2023-03-01T22:59:08.574Z,65.94
2023-03-01T23:01:38.342Z,65.56
2023-03-01T23:04:05.162Z,65.71
2023-03-01T23:06:32.229Z,66.36
2023-03-01T23:09:01.741Z,65.97
2023-03-01T23:11:29.480Z,65.99
2023-03-01T23:13:56.462Z,66.57
2023-03-01T23:16:26.175Z,66.33
2023-03-01T23:18:58.276Z,65.84
2023-03-01T23:21:24.763Z,65.99
2023-03-01T23:23:51.576Z,66.26
2023-03-01T23:26:18.820Z,66.56
2023-03-01T23:28:45.383Z,65.83
2023-03-01T23:31:14.251Z,66.33
2023-03-01T23:33:43.208Z,67.31
2023-03-01T23:36:20.025Z,67.44
2023-03-01T23:38:47.218Z,66.83
2023-03-01T23:41:16.900Z,68.34
2023-03-01T23:43:48.272Z,66.84
2023-03-01T23:46:16.219Z,67.82
2023-03-01T23:48:43.359Z,67.84
2023-03-01T23:51:10.428Z,66.69
2023-03-01T23:53:38.400Z,67.55
2023-03-01T23:56:05.456Z,68.22
2023-03-01T23:58:32.185Z,68.34
